Time;durP1;ratioP1;P1;durP2;ratioP2;P2;SDS_P1;SDS_P2;PMS_P1;PMS_P2;Temp;Humidity;BMP_temperature;BMP_pressure;BME280_temperature;BME280_humidity;BME280_pressure;Samples;Min_cycle;Max_cycle;Signal;HPM_P1;HPM_P2
2023/06/09 00:01:48;;;;;;;13.90;5.15;;;15.30;97.30;;;;;;5006799;28;20053;-78
2023/06/09 00:04:15;;;;;;;14.25;5.18;;;15.20;97.30;;;;;;4990728;28;20037;-78
2023/06/09 00:06:43;;;;;;;11.93;4.68;;;15.20;97.30;;;;;;4988521;28;20085;-78
2023/06/09 00:09:08;;;;;;;14.18;5.30;;;15.90;97.60;;;;;;4986890;28;20038;-78
2023/06/09 00:11:35;;;;;;;12.55;5.03;;;16.10;97.70;;;;;;5015790;28;20045;-78
2023/06/09 00:14:05;;;;;;;16.15;5.63;;;15.20;97.50;;;;;;4992673;28;20734;-78
2023/06/09 00:16:31;;;;;;;15.93;5.53;;;15.10;97.80;;;;;;5015051;28;20044;-78
2023/06/09 00:19:01;;;;;;;15.45;5.65;;;15.10;97.50;;;;;;5012610;28;20402;-78
2023/06/09 00:21:27;;;;;;;11.95;5.03;;;15.20;97.60;;;;;;5010167;28;20087;-78
2023/06/09 00:23:55;;;;;;;16.85;5.57;;;15.20;97.60;;;;;;5031071;28;20049;-78
2023/06/09 00:26:21;;;;;;;12.75;5.45;;;15.20;97.70;;;;;;5007311;28;20095;-78
2023/06/09 00:28:47;;;;;;;15.30;5.50;;;15.20;97.80;;;;;;5007863;28;20041;-78
2023/06/09 00:31:12;;;;;;;14.20;5.30;;;15.10;97.80;;;;;;4987498;28;20192;-78
2023/06/09 00:33:38;;;;;;;12.23;5.10;;;15.10;97.80;;;;;;4985961;28;20030;-77
2023/06/09 00:36:05;;;;;;;14.27;6.15;;;15.20;98.10;;;;;;4990399;28;20041;-79
2023/06/09 00:38:32;;;;;;;14.35;5.90;;;15.10;97.90;;;;;;4998745;28;20049;-78
2023/06/09 00:40:57;;;;;;;14.95;5.40;;;15.10;97.90;;;;;;4995903;28;20554;-78
2023/06/09 00:43:23;;;;;;;14.77;5.30;;;15.10;98.00;;;;;;5005021;28;20475;-77
2023/06/09 00:45:49;;;;;;;15.82;5.47;;;15.10;98.10;;;;;;5003918;28;20056;-77
2023/06/09 00:48:16;;;;;;;16.15;6.03;;;15.90;98.40;;;;;;5029488;28;20038;-78
2023/06/09 00:50:42;;;;;;;14.63;5.57;;;15.00;98.20;;;;;;5009042;28;20098;-78
2023/06/09 00:53:10;;;;;;;13.35;5.10;;;15.00;98.30;;;;;;5013916;28;20041;-78
2023/06/09 00:55:44;;;;;;;13.75;5.22;;;15.00;98.40;;;;;;4993054;28;20037;-78
2023/06/09 00:58:10;;;;;;;16.55;5.72;;;16.00;98.70;;;;;;5029353;28;20513;-78
2023/06/09 01:00:38;;;;;;;12.88;5.70;;;15.40;98.60;;;;;;5014425;28;20401;-78
2023/06/09 01:03:05;;;;;;;12.90;5.75;;;15.00;98.50;;;;;;5031315;28;20048;-78
2023/06/09 01:05:36;;;;;;;16.05;5.70;;;15.00;98.60;;;;;;4996029;28;20045;-78
2023/06/09 01:08:37;;;;;;;12.90;5.60;;;15.10;98.70;;;;;;5030971;28;20033;-78
2023/06/09 01:11:21;;;;;;;16.75;5.95;;;15.00;98.90;;;;;;5015836;28;20391;-78
2023/06/09 01:13:56;;;;;;;17.13;5.88;;;15.00;98.90;;;;;;5030705;28;20037;-78
2023/06/09 01:16:41;;;;;;;17.05;6.20;;;15.00;98.90;;;;;;5030913;28;20037;-78
2023/06/09 01:19:15;;;;;;;14.02;5.60;;;15.00;99.10;;;;;;5029347;28;20044;-77
2023/06/09 01:21:45;;;;;;;18.58;5.90;;;15.50;99.20;;;;;;5036107;28;20088;-78
2023/06/09 01:24:23;;;;;;;16.20;5.63;;;14.90;99.10;;;;;;5031161;28;20508;-78
2023/06/09 01:26:50;;;;;;;15.90;5.60;;;14.90;99.20;;;;;;5008252;28;20431;-78
2023/06/09 01:29:19;;;;;;;13.00;6.10;;;15.80;99.50;;;;;;4997887;28;20046;-77
2023/06/09 01:31:46;;;;;;;13.93;5.63;;;15.40;99.50;;;;;;5001256;28;20053;-78
2023/06/09 01:34:13;;;;;;;17.50;6.38;;;14.90;99.40;;;;;;5022411;28;20036;-77
2023/06/09 01:36:40;;;;;;;17.00;6.40;;;15.40;99.70;;;;;;4997402;28;20042;-78
2023/06/09 01:39:06;;;;;;;13.13;6.00;;;14.80;99.60;;;;;;5011734;28;20042;-78
2023/06/09 01:41:32;;;;;;;19.60;6.38;;;15.40;99.90;;;;;;5000220;28;20492;-78
2023/06/09 01:43:57;;;;;;;16.55;6.18;;;14.80;99.80;;;;;;5000116;28;20116;-77
2023/06/09 01:46:23;;;;;;;15.43;6.53;;;15.70;99.90;;;;;;5003123;28;20041;-78
2023/06/09 01:49:13;;;;;;;18.45;7.15;;;14.80;99.90;;;;;;5004994;28;20435;-78
2023/06/09 01:51:52;;;;;;;16.35;6.22;;;14.80;99.90;;;;;;5028900;28;20163;-78
2023/06/09 01:54:29;;;;;;;14.27;6.28;;;14.80;99.90;;;;;;5032073;28;20037;-78
2023/06/09 01:57:08;;;;;;;23.58;6.97;;;14.70;99.90;;;;;;5059124;23;20045;-74
2023/06/09 01:59:43;;;;;;;12.98;6.50;;;14.70;99.90;;;;;;5038470;28;20037;-73
2023/06/09 02:02:11;;;;;;;17.42;6.22;;;14.70;99.90;;;;;;5044462;28;20052;-74
2023/06/09 02:04:39;;;;;;;13.88;6.85;;;14.70;99.90;;;;;;5032710;28;20127;-75
2023/06/09 02:07:05;;;;;;;17.45;7.10;;;14.60;99.90;;;;;;5043930;28;20495;-73
2023/06/09 02:09:33;;;;;;;20.80;7.60;;;14.60;99.90;;;;;;5044862;28;20037;-73
2023/06/09 02:11:59;;;;;;;15.02;6.68;;;14.60;99.90;;;;;;5040828;28;20153;-74
2023/06/09 02:14:34;;;;;;;15.43;6.68;;;14.50;99.90;;;;;;5037939;28;20036;-74
2023/06/09 02:17:02;;;;;;;14.43;6.70;;;14.50;99.90;;;;;;5036305;28;20045;-73
2023/06/09 02:19:30;;;;;;;20.35;7.13;;;14.50;99.90;;;;;;5063419;28;20036;-73
2023/06/09 02:21:59;;;;;;;16.60;7.32;;;14.50;99.90;;;;;;5043379;28;20040;-73
2023/06/09 02:24:28;;;;;;;19.38;7.70;;;14.50;99.90;;;;;;5067487;28;20069;-73
2023/06/09 02:26:56;;;;;;;20.63;6.90;;;14.50;99.90;;;;;;5064533;28;20119;-73
2023/06/09 02:29:24;;;;;;;20.05;7.70;;;14.40;99.90;;;;;;5043894;28;20040;-73
2023/06/09 02:31:49;;;;;;;19.88;7.85;;;14.40;99.90;;;;;;5046143;28;20101;-73
2023/06/09 02:34:15;;;;;;;19.55;7.78;;;14.40;99.90;;;;;;5039973;28;20477;-73
2023/06/09 02:36:42;;;;;;;15.23;7.20;;;14.40;99.90;;;;;;5041942;28;20083;-75
2023/06/09 02:39:08;;;;;;;17.45;8.13;;;14.40;99.90;;;;;;5039392;28;20067;-74
2023/06/09 02:41:34;;;;;;;18.52;8.00;;;14.40;99.90;;;;;;5049423;28;20044;-74
2023/06/09 02:44:00;;;;;;;18.33;8.35;;;14.40;99.90;;;;;;5035813;28;20515;-74
2023/06/09 02:46:25;;;;;;;16.98;7.78;;;14.30;99.90;;;;;;5042741;28;20040;-73
2023/06/09 02:48:51;;;;;;;15.98;7.22;;;14.30;99.90;;;;;;5047050;28;20062;-73
2023/06/09 02:51:16;;;;;;;22.55;8.10;;;14.30;99.90;;;;;;5039669;28;20079;-73
2023/06/09 02:53:42;;;;;;;20.92;7.95;;;14.30;99.90;;;;;;5035742;28;20106;-73
2023/06/09 02:56:09;;;;;;;20.05;7.38;;;14.30;99.90;;;;;;5057144;28;20064;-74
2023/06/09 02:58:34;;;;;;;20.02;8.05;;;14.20;99.90;;;;;;5045548;28;20086;-73
2023/06/09 03:01:01;;;;;;;17.73;8.20;;;14.20;99.90;;;;;;5047107;28;20045;-74
2023/06/09 03:03:28;;;;;;;18.80;7.80;;;14.20;99.90;;;;;;5041092;28;20053;-73
2023/06/09 03:05:54;;;;;;;19.30;8.05;;;14.20;99.90;;;;;;5035133;28;20517;-73
2023/06/09 03:08:20;;;;;;;16.95;7.90;;;14.20;99.90;;;;;;5035031;28;20037;-73
2023/06/09 03:10:45;;;;;;;18.45;7.90;;;14.10;99.90;;;;;;5045150;28;20102;-74
2023/06/09 03:13:11;;;;;;;22.60;8.13;;;14.10;99.90;;;;;;5042972;28;20036;-73
2023/06/09 03:15:40;;;;;;;21.08;8.52;;;14.10;99.90;;;;;;5062234;28;20098;-74
2023/06/09 03:18:07;;;;;;;18.50;8.48;;;14.10;99.90;;;;;;5039776;28;20048;-73
2023/06/09 03:20:34;;;;;;;21.77;8.00;;;14.10;99.90;;;;;;5046626;28;20126;-73
2023/06/09 03:23:00;;;;;;;17.08;7.65;;;14.00;99.90;;;;;;5027265;28;20044;-73
2023/06/09 03:25:25;;;;;;;20.02;7.50;;;14.00;99.90;;;;;;5036950;28;20033;-73
2023/06/09 03:27:52;;;;;;;16.38;8.02;;;14.00;99.90;;;;;;5038743;28;20132;-73
2023/06/09 03:30:17;;;;;;;20.40;8.23;;;14.00;99.90;;;;;;5050165;28;20044;-73
2023/06/09 03:32:43;;;;;;;22.00;9.13;;;14.00;99.90;;;;;;5041258;28;20053;-74
2023/06/09 03:35:08;;;;;;;16.48;7.65;;;14.00;99.90;;;;;;5035876;28;20029;-73
2023/06/09 03:37:34;;;;;;;19.27;8.15;;;14.00;99.90;;;;;;5061695;28;20041;-73
2023/06/09 03:39:59;;;;;;;20.00;8.20;;;13.90;99.90;;;;;;5043724;28;20037;-73
2023/06/09 03:42:25;;;;;;;16.67;7.68;;;13.90;99.90;;;;;;5044269;28;20071;-74
2023/06/09 03:44:57;;;;;;;17.85;7.75;;;13.90;99.90;;;;;;5034933;28;20095;-74
2023/06/09 03:47:23;;;;;;;20.23;8.20;;;13.90;99.90;;;;;;5043835;28;20698;-73
2023/06/09 03:49:48;;;;;;;19.38;8.25;;;13.90;99.90;;;;;;5044247;28;20041;-73
2023/06/09 03:52:14;;;;;;;17.65;8.07;;;13.90;99.90;;;;;;5043800;28;20488;-73
2023/06/09 03:54:39;;;;;;;24.98;8.80;;;13.90;99.90;;;;;;5028905;28;20041;-73
2023/06/09 03:57:06;;;;;;;19.73;7.55;;;13.90;99.90;;;;;;5039913;28;20041;-73
2023/06/09 03:59:32;;;;;;;20.20;8.27;;;13.80;99.90;;;;;;5046436;28;20063;-73
2023/06/09 04:01:57;;;;;;;19.10;8.70;;;13.80;99.90;;;;;;5036846;28;20036;-75
2023/06/09 04:04:23;;;;;;;19.13;8.02;;;13.80;99.90;;;;;;5033851;28;20278;-74
2023/06/09 04:06:48;;;;;;;24.02;8.60;;;13.80;99.90;;;;;;5042981;28;20111;-73
2023/06/09 04:09:15;;;;;;;20.15;8.32;;;13.80;99.90;;;;;;5046297;28;20070;-73
2023/06/09 04:11:41;;;;;;;19.08;8.05;;;13.90;99.90;;;;;;5063821;28;20057;-73
2023/06/09 04:14:06;;;;;;;19.48;8.25;;;13.90;99.90;;;;;;5029775;28;20531;-73
2023/06/09 04:16:32;;;;;;;17.35;7.72;;;13.80;99.90;;;;;;5040272;28;20037;-73
2023/06/09 04:18:58;;;;;;;19.25;8.55;;;13.90;99.90;;;;;;5039805;28;20047;-73
2023/06/09 04:21:23;;;;;;;18.02;8.65;;;13.90;99.90;;;;;;5050018;28;20090;-73
2023/06/09 04:23:49;;;;;;;18.80;8.45;;;13.90;99.90;;;;;;5044273;28;20044;-73
2023/06/09 04:26:15;;;;;;;17.95;7.63;;;13.90;99.90;;;;;;5063978;28;20029;-74
2023/06/09 04:28:41;;;;;;;18.98;8.50;;;13.90;99.90;;;;;;5029063;28;20145;-73
2023/06/09 04:31:08;;;;;;;17.48;8.63;;;13.90;99.90;;;;;;5053146;28;20050;-75
2023/06/09 04:33:37;;;;;;;18.63;8.40;;;13.90;99.90;;;;;;5036624;28;20045;-74
2023/06/09 04:36:06;;;;;;;18.15;7.63;;;13.90;99.90;;;;;;5049104;28;20124;-76
2023/06/09 04:38:33;;;;;;;17.02;8.25;;;13.90;99.90;;;;;;5052018;28;20037;-74
2023/06/09 04:41:04;;;;;;;19.60;8.63;;;13.90;99.90;;;;;;5041780;28;20028;-74
2023/06/09 04:43:32;;;;;;;23.50;8.10;;;13.90;99.90;;;;;;5030899;28;20044;-74
2023/06/09 04:45:59;;;;;;;19.60;8.20;;;13.90;99.90;;;;;;5039100;28;20132;-74
2023/06/09 04:48:29;;;;;;;20.60;8.52;;;14.00;99.90;;;;;;5039243;28;20530;-75
2023/06/09 04:50:56;;;;;;;16.30;7.57;;;14.00;99.90;;;;;;5037475;28;20045;-75
2023/06/09 04:53:22;;;;;;;19.77;8.40;;;14.00;99.90;;;;;;5055371;28;20047;-74
2023/06/09 04:55:48;;;;;;;16.38;7.82;;;14.00;99.90;;;;;;5032981;28;20041;-75
2023/06/09 04:58:15;;;;;;;17.73;8.50;;;14.00;99.90;;;;;;5036499;28;20036;-74
2023/06/09 05:00:41;;;;;;;18.80;8.70;;;14.10;99.90;;;;;;5040614;28;20048;-74
2023/06/09 05:03:06;;;;;;;21.67;8.32;;;14.00;99.90;;;;;;5031551;28;20079;-74
2023/06/09 05:05:32;;;;;;;24.27;8.70;;;14.10;99.90;;;;;;5032241;28;20033;-75
2023/06/09 05:07:57;;;;;;;18.90;8.48;;;14.10;99.90;;;;;;5033220;28;20409;-75
2023/06/09 05:10:23;;;;;;;24.08;8.63;;;14.10;99.90;;;;;;5034787;28;20033;-75
2023/06/09 05:12:49;;;;;;;17.20;8.23;;;14.10;99.90;;;;;;5033780;28;20045;-75
2023/06/09 05:15:15;;;;;;;20.27;8.85;;;14.20;99.90;;;;;;5018586;28;20029;-75
2023/06/09 05:17:43;;;;;;;22.52;8.55;;;14.20;99.90;;;;;;5033845;28;20036;-75
2023/06/09 05:20:10;;;;;;;21.90;8.30;;;14.20;99.90;;;;;;5035856;28;20037;-74
2023/06/09 05:22:36;;;;;;;18.65;8.68;;;14.20;99.90;;;;;;5030329;28;20406;-75
2023/06/09 05:25:03;;;;;;;17.38;7.88;;;14.30;99.90;;;;;;5047915;28;20051;-75
2023/06/09 05:27:29;;;;;;;22.98;8.48;;;14.30;99.90;;;;;;5033683;28;20066;-75
2023/06/09 05:29:55;;;;;;;20.33;8.80;;;14.30;99.90;;;;;;5049560;28;20040;-75
2023/06/09 05:32:21;;;;;;;19.92;8.75;;;14.40;99.90;;;;;;5041608;28;20044;-74
2023/06/09 05:34:47;;;;;;;21.20;8.30;;;14.40;99.90;;;;;;5023130;28;20127;-75
2023/06/09 05:37:15;;;;;;;22.98;8.35;;;14.40;99.90;;;;;;5037942;28;20037;-74
2023/06/09 05:39:40;;;;;;;21.50;8.32;;;14.50;99.90;;;;;;5031528;28;20052;-76
2023/06/09 05:42:08;;;;;;;17.52;8.18;;;14.50;99.90;;;;;;5037855;28;20507;-74
2023/06/09 05:44:33;;;;;;;15.80;7.90;;;14.50;99.90;;;;;;5041104;28;20045;-75
2023/06/09 05:46:59;;;;;;;19.23;8.07;;;14.60;99.90;;;;;;5051840;28;20098;-74
2023/06/09 05:49:24;;;;;;;18.73;8.95;;;14.60;99.90;;;;;;5044000;28;20084;-75
2023/06/09 05:51:50;;;;;;;16.27;8.68;;;14.60;99.90;;;;;;5022050;28;20511;-74
2023/06/09 05:54:16;;;;;;;20.23;8.13;;;14.70;99.90;;;;;;5044710;28;20586;-74
2023/06/09 05:56:44;;;;;;;20.73;8.55;;;14.70;99.90;;;;;;5021397;28;20049;-75
2023/06/09 05:59:13;;;;;;;18.15;8.10;;;14.70;99.90;;;;;;5046392;28;20037;-74
2023/06/09 06:01:39;;;;;;;20.75;8.63;;;14.80;99.90;;;;;;5042925;28;20037;-75
2023/06/09 06:04:05;;;;;;;20.23;7.97;;;14.80;99.90;;;;;;5033422;28;20052;-76
2023/06/09 06:06:31;;;;;;;18.25;9.02;;;14.80;99.90;;;;;;5052966;28;20032;-74
2023/06/09 06:08:57;;;;;;;17.27;8.52;;;14.90;99.90;;;;;;5039044;28;20041;-73
2023/06/09 06:11:23;;;;;;;20.48;8.48;;;14.90;99.90;;;;;;5045299;28;20082;-74
2023/06/09 06:13:48;;;;;;;18.75;8.40;;;15.00;99.90;;;;;;5038911;28;20124;-74
2023/06/09 06:16:14;;;;;;;16.60;8.18;;;15.00;99.90;;;;;;5046313;28;20041;-73
2023/06/09 06:18:40;;;;;;;18.98;8.55;;;15.10;99.90;;;;;;5062611;28;20032;-74
2023/06/09 06:21:05;;;;;;;19.25;8.15;;;15.10;99.90;;;;;;5038029;28;20121;-75
2023/06/09 06:23:31;;;;;;;18.20;8.00;;;15.20;99.90;;;;;;5045193;28;20040;-74
2023/06/09 06:25:57;;;;;;;15.55;8.10;;;15.10;99.90;;;;;;5045137;28;20287;-74
2023/06/09 06:28:23;;;;;;;19.55;8.40;;;15.30;99.90;;;;;;5052999;28;20044;-75
2023/06/09 06:30:50;;;;;;;17.00;8.15;;;15.30;99.90;;;;;;5048166;28;20045;-75
2023/06/09 06:33:16;;;;;;;20.08;8.73;;;15.40;99.90;;;;;;5039049;28;20713;-76
2023/06/09 06:35:42;;;;;;;14.93;8.07;;;15.40;99.90;;;;;;5032272;28;20036;-77
2023/06/09 06:38:07;;;;;;;18.35;7.95;;;15.80;99.90;;;;;;5035147;28;20114;-73
2023/06/09 06:40:33;;;;;;;15.75;7.93;;;15.60;99.90;;;;;;5037140;28;20120;-77
2023/06/09 06:42:59;;;;;;;20.77;8.70;;;15.40;99.90;;;;;;5036134;28;20086;-77
2023/06/09 06:45:26;;;;;;;18.23;9.07;;;15.70;99.90;;;;;;5031116;28;20135;-73
2023/06/09 06:47:53;;;;;;;17.60;8.27;;;15.70;99.90;;;;;;5029974;28;20343;-73
2023/06/09 06:50:18;;;;;;;22.35;8.55;;;15.70;99.90;;;;;;5042767;28;20068;-78
2023/06/09 06:52:45;;;;;;;15.95;8.18;;;15.80;99.90;;;;;;5046423;28;20102;-77
2023/06/09 06:55:10;;;;;;;17.23;8.32;;;15.90;99.90;;;;;;5036958;28;20303;-74
2023/06/09 06:57:37;;;;;;;20.17;8.10;;;15.90;99.90;;;;;;5036440;28;20412;-78
2023/06/09 07:00:13;;;;;;;18.63;8.75;;;16.00;99.90;;;;;;5051697;28;20094;-77
2023/06/09 07:02:39;;;;;;;16.38;8.40;;;16.00;99.90;;;;;;5035901;28;20041;-75
2023/06/09 07:05:09;;;;;;;19.65;8.23;;;16.10;99.90;;;;;;5038022;28;20080;-75
2023/06/09 07:07:34;;;;;;;18.15;8.82;;;16.20;99.90;;;;;;5027961;28;20493;-75
2023/06/09 07:10:04;;;;;;;19.05;8.52;;;16.20;99.90;;;;;;5034855;28;20051;-78
2023/06/09 07:12:29;;;;;;;15.20;8.13;;;16.30;99.90;;;;;;5033185;28;20037;-77
2023/06/09 07:14:58;;;;;;;15.90;7.50;;;16.30;99.90;;;;;;5040996;28;20040;-79
2023/06/09 07:17:23;;;;;;;15.40;7.65;;;16.40;99.90;;;;;;5023912;28;20036;-74
2023/06/09 07:19:49;;;;;;;17.13;8.40;;;16.50;99.90;;;;;;5043741;28;20041;-77
2023/06/09 07:22:16;;;;;;;17.98;8.05;;;16.50;99.90;;;;;;5055867;28;20521;-76
2023/06/09 07:24:41;;;;;;;18.70;8.20;;;16.60;99.90;;;;;;5044152;28;20124;-75
2023/06/09 07:27:08;;;;;;;15.05;7.70;;;16.70;99.90;;;;;;5020335;28;20124;-77
2023/06/09 07:29:35;;;;;;;14.07;7.47;;;16.80;99.90;;;;;;5036863;28;20036;-78
2023/06/09 07:32:02;;;;;;;13.43;7.15;;;16.80;99.90;;;;;;5020658;28;20056;-74
2023/06/09 07:34:29;;;;;;;18.75;8.07;;;16.90;99.90;;;;;;5034313;28;20043;-74
2023/06/09 07:36:55;;;;;;;15.27;7.50;;;16.90;99.90;;;;;;5034820;28;20041;-78
2023/06/09 07:39:20;;;;;;;17.25;7.38;;;17.00;99.90;;;;;;5027247;28;20063;-75
2023/06/09 07:41:46;;;;;;;14.55;6.90;;;17.00;99.90;;;;;;5039596;28;20044;-75
2023/06/09 07:44:12;;;;;;;14.45;6.82;;;17.10;99.90;;;;;;5029498;28;20106;-76
2023/06/09 07:46:37;;;;;;;14.82;7.45;;;17.20;99.90;;;;;;5021898;28;20037;-76
2023/06/09 07:49:03;;;;;;;16.38;6.72;;;17.20;99.90;;;;;;5039084;28;20036;-74
2023/06/09 07:51:29;;;;;;;13.95;6.85;;;17.40;99.90;;;;;;5014774;28;20106;-78
2023/06/09 07:53:55;;;;;;;14.68;6.90;;;17.40;99.90;;;;;;5033745;28;20500;-78
2023/06/09 07:56:21;;;;;;;14.20;6.82;;;17.60;99.90;;;;;;5030769;28;20124;-74
2023/06/09 07:58:46;;;;;;;13.77;7.22;;;17.70;99.90;;;;;;5035523;28;20532;-74
2023/06/09 08:01:12;;;;;;;11.38;6.38;;;17.70;99.90;;;;;;5032990;28;20068;-77
2023/06/09 08:03:38;;;;;;;13.63;6.10;;;17.80;99.90;;;;;;5039686;28;20037;-74
2023/06/09 08:06:04;;;;;;;14.98;7.10;;;17.90;99.90;;;;;;5032702;28;20486;-79
2023/06/09 08:08:31;;;;;;;14.95;7.18;;;18.00;99.90;;;;;;5041359;28;20087;-78
2023/06/09 08:10:58;;;;;;;19.90;7.15;;;18.10;99.90;;;;;;5034040;28;20048;-75
2023/06/09 08:13:24;;;;;;;17.27;6.80;;;18.20;99.90;;;;;;5044228;28;20489;-74
2023/06/09 08:15:50;;;;;;;12.93;6.68;;;18.40;99.90;;;;;;5022181;28;20037;-77
2023/06/09 08:18:15;;;;;;;31.42;7.63;;;18.60;99.90;;;;;;5010156;28;20428;-78
2023/06/09 08:20:41;;;;;;;17.73;7.10;;;18.80;99.90;;;;;;5043208;28;20474;-75
2023/06/09 08:23:10;;;;;;;15.85;6.93;;;19.00;99.90;;;;;;5035521;28;20089;-75
2023/06/09 08:25:35;;;;;;;16.63;7.05;;;19.30;99.90;;;;;;5026037;28;20080;-80
2023/06/09 08:28:01;;;;;;;13.95;6.93;;;19.60;99.90;;;;;;5046530;28;20532;-75
2023/06/09 08:30:27;;;;;;;12.00;6.15;;;20.00;99.90;;;;;;5036463;28;20527;-77
2023/06/09 08:32:52;;;;;;;10.48;6.47;;;20.30;99.90;;;;;;5030806;28;20107;-78
2023/06/09 08:35:18;;;;;;;11.10;6.28;;;20.60;99.90;;;;;;5013265;28;20404;-76
2023/06/09 08:37:44;;;;;;;13.02;6.65;;;20.90;99.90;;;;;;5047379;28;20555;-75
2023/06/09 08:40:10;;;;;;;11.07;6.03;;;21.20;99.90;;;;;;5038805;28;20424;-77
2023/06/09 08:42:37;;;;;;;12.45;6.00;;;21.40;99.90;;;;;;5034446;28;20179;-75
2023/06/09 08:45:05;;;;;;;13.38;6.30;;;21.60;99.90;;;;;;5041541;22;20768;-78
2023/06/09 08:47:34;;;;;;;12.23;6.28;;;22.00;99.90;;;;;;5012623;28;20065;-78
2023/06/09 08:50:02;;;;;;;11.90;6.43;;;22.20;99.90;;;;;;5022042;28;20045;-78
2023/06/09 08:52:29;;;;;;;14.85;6.18;;;22.40;99.90;;;;;;5004343;28;20400;-79
2023/06/09 08:54:59;;;;;;;11.40;6.15;;;22.60;99.90;;;;;;4999528;28;20048;-79
2023/06/09 08:57:25;;;;;;;13.43;6.13;;;22.70;99.90;;;;;;5005699;28;20037;-79
2023/06/09 08:59:52;;;;;;;9.95;5.65;;;22.90;99.90;;;;;;4973394;28;20074;-79
2023/06/09 09:02:18;;;;;;;13.35;5.63;;;23.10;99.90;;;;;;4974953;28;20117;-79
2023/06/09 09:04:44;;;;;;;9.88;5.68;;;23.30;99.70;;;;;;4992929;28;20042;-79
2023/06/09 09:07:11;;;;;;;8.63;5.75;;;23.50;99.20;;;;;;4978466;28;20120;-78
2023/06/09 09:09:39;;;;;;;12.70;6.10;;;23.50;98.70;;;;;;4995575;28;20030;-79
2023/06/09 09:12:10;;;;;;;13.70;6.18;;;23.90;98.50;;;;;;4982152;28;20045;-78
2023/06/09 09:14:40;;;;;;;13.20;5.80;;;24.00;97.50;;;;;;5014112;28;20045;-78
2023/06/09 09:17:11;;;;;;;9.02;5.40;;;24.20;97.50;;;;;;4999331;28;20034;-77
2023/06/09 09:19:42;;;;;;;;;;;24.30;97.20;;;;;;4982515;28;20049;-78
2023/06/09 09:22:08;;;;;;;11.25;5.82;;;24.50;95.50;;;;;;4999161;28;19921;-78
2023/06/09 09:24:41;;;;;;;11.63;6.40;;;24.70;96.90;;;;;;4979246;28;20046;-78
2023/06/09 09:27:16;;;;;;;11.90;5.93;;;24.90;95.90;;;;;;5004565;28;20065;-78
2023/06/09 09:29:43;;;;;;;9.80;5.80;;;25.10;95.30;;;;;;5007910;28;20052;-78
2023/06/09 09:32:10;;;;;;;10.70;5.20;;;25.30;95.50;;;;;;5007209;28;20034;-79
2023/06/09 09:34:39;;;;;;;9.15;5.15;;;25.40;95.30;;;;;;4978071;28;20045;-78
2023/06/09 09:37:10;;;;;;;10.63;5.70;;;25.60;95.10;;;;;;4993779;28;20532;-77
2023/06/09 09:39:50;;;;;;;8.82;5.80;;;25.80;94.10;;;;;;4991166;28;20041;-78
2023/06/09 09:42:16;;;;;;;9.05;5.70;;;25.90;93.20;;;;;;4996225;28;20077;-78
2023/06/09 09:44:46;;;;;;;7.88;5.53;;;26.10;93.70;;;;;;4985319;28;20085;-78
2023/06/09 09:47:14;;;;;;;13.23;5.60;;;26.20;93.00;;;;;;5001026;28;20038;-78
2023/06/09 09:50:00;;;;;;;10.40;5.53;;;26.30;92.60;;;;;;4998140;28;20287;-81
2023/06/09 09:52:43;;;;;;;9.25;6.00;;;26.40;91.30;;;;;;5002668;28;20034;-78
2023/06/09 09:55:13;;;;;;;11.85;5.90;;;26.50;91.90;;;;;;4992808;28;20379;-79
2023/06/09 09:57:41;;;;;;;10.73;5.90;;;26.70;91.80;;;;;;5013750;28;20593;-78
2023/06/09 10:00:12;;;;;;;12.20;5.80;;;26.80;91.40;;;;;;4990552;28;20229;-79
2023/06/09 10:02:43;;;;;;;;;;;26.90;90.90;;;;;;4990244;28;20045;-78
2023/06/09 10:05:10;;;;;;;16.67;6.13;;;26.90;88.70;;;;;;4992095;28;19917;-78
2023/06/09 10:07:39;;;;;;;8.27;5.22;;;27.00;90.40;;;;;;5006517;28;20061;-79
2023/06/09 10:10:10;;;;;;;11.68;5.28;;;27.10;90.00;;;;;;4992588;28;20034;-78
2023/06/09 10:12:37;;;;;;;10.55;5.60;;;27.20;89.50;;;;;;5014075;28;20041;-78
2023/06/09 10:15:06;;;;;;;10.18;5.90;;;27.40;88.30;;;;;;4998674;28;20055;-80
2023/06/09 10:17:35;;;;;;;9.77;5.40;;;27.60;87.90;;;;;;4987817;28;20528;-79
2023/06/09 10:20:03;;;;;;;11.15;5.57;;;27.70;86.90;;;;;;4984450;28;20037;-80
2023/06/09 10:22:29;;;;;;;13.00;5.40;;;27.80;86.80;;;;;;4981745;28;20383;-80
2023/06/09 10:24:57;;;;;;;8.02;4.90;;;27.90;86.20;;;;;;4995234;28;20042;-80
2023/06/09 10:27:24;;;;;;;9.68;5.43;;;28.00;85.30;;;;;;5007582;28;20402;-80
2023/06/09 10:29:51;;;;;;;11.00;5.70;;;28.10;84.80;;;;;;5003469;28;20038;-80
2023/06/09 10:32:22;;;;;;;8.25;5.38;;;28.30;83.80;;;;;;5000968;28;20041;-80
2023/06/09 10:34:54;;;;;;;10.63;5.25;;;28.30;82.50;;;;;;5020644;28;20132;-82
2023/06/09 10:37:30;;;;;;;12.00;5.40;;;28.40;82.20;;;;;;4994864;28;20033;-79
2023/06/09 10:40:21;;;;;;;8.20;5.22;;;28.50;81.20;;;;;;5021306;28;20038;-80
2023/06/09 10:42:59;;;;;;;10.52;5.45;;;28.70;80.70;;;;;;4993145;28;20049;-80
2023/06/09 10:45:49;;;;;;;9.10;5.60;;;28.70;80.30;;;;;;5005714;28;20073;-80
2023/06/09 10:48:51;;;;;;;8.43;4.87;;;28.80;79.00;;;;;;4983185;28;20057;-81
2023/06/09 10:51:28;;;;;;;12.15;5.22;;;28.80;77.10;;;;;;4984042;28;20038;-79
2023/06/09 10:54:14;;;;;;;17.25;5.68;;;28.90;76.20;;;;;;5024331;28;20050;-80
2023/06/09 10:56:46;;;;;;;11.25;5.45;;;29.00;76.30;;;;;;5016524;28;20053;-79
2023/06/09 10:59:24;;;;;;;10.98;5.07;;;29.20;76.90;;;;;;4986801;28;20486;-80
2023/06/09 11:01:59;;;;;;;8.85;5.10;;;29.30;75.20;;;;;;5011827;28;20050;-81
2023/06/09 11:07:13;;;;;;;7.28;4.90;;;29.40;73.50;;;;;;5012547;28;20485;-79
2023/06/09 11:09:59;;;;;;;10.07;5.18;;;29.40;73.20;;;;;;4986135;28;20092;-79
2023/06/09 11:12:25;;;;;;;8.45;4.82;;;29.50;70.80;;;;;;5006744;28;20072;-79
2023/06/09 11:14:58;;;;;;;7.47;5.15;;;29.40;71.90;;;;;;5014342;28;20463;-79
2023/06/09 11:17:39;;;;;;;6.10;4.80;;;29.40;71.00;;;;;;5023737;28;20121;-81
2023/06/09 11:20:08;;;;;;;6.85;5.10;;;29.50;70.80;;;;;;5021085;28;20111;-80
2023/06/09 11:22:54;;;;;;;9.63;5.13;;;29.70;71.30;;;;;;5007771;28;20510;-79
2023/06/09 11:25:19;;;;;;;8.25;5.20;;;29.90;70.30;;;;;;5024464;28;20064;-80
2023/06/09 11:28:08;;;;;;;7.50;5.38;;;29.90;69.20;;;;;;5007385;28;20058;-80
2023/06/09 11:30:34;;;;;;;8.65;5.03;;;29.90;68.70;;;;;;5026226;28;20041;-79
2023/06/09 11:33:02;;;;;;;7.00;4.95;;;29.90;67.30;;;;;;5027213;28;20048;-80
2023/06/09 11:35:27;;;;;;;7.47;5.13;;;30.00;67.40;;;;;;5025277;28;20402;-79
2023/06/09 11:37:58;;;;;;;7.45;4.90;;;30.10;67.60;;;;;;4993475;28;20056;-80
2023/06/09 11:40:29;;;;;;;7.38;5.53;;;30.10;66.50;;;;;;4987355;28;20049;-80
2023/06/09 11:42:55;;;;;;;;;;;30.10;65.10;;;;;;5026128;28;20075;-80
2023/06/09 11:45:29;;;;;;;16.65;5.63;;;30.10;64.90;;;;;;5009776;28;20276;-80
2023/06/09 11:47:57;;;;;;;17.60;6.30;;;30.10;64.70;;;;;;5003270;28;20103;-80
2023/06/09 11:50:35;;;;;;;16.48;5.75;;;30.10;66.10;;;;;;5019701;28;20092;-81
2023/06/09 11:53:05;;;;;;;52.13;8.00;;;30.20;66.10;;;;;;5028725;28;20394;-81
2023/06/09 11:55:31;;;;;;;50.50;8.05;;;30.20;65.80;;;;;;5009167;28;20113;-82
2023/06/09 11:57:57;;;;;;;26.23;5.55;;;30.20;66.10;;;;;;4996473;28;20116;-81
2023/06/09 12:00:28;;;;;;;26.38;5.97;;;30.20;65.30;;;;;;5021124;28;20030;-79
2023/06/09 12:02:57;;;;;;;21.83;6.53;;;30.20;64.90;;;;;;4995623;28;20140;-81
2023/06/09 12:05:24;;;;;;;18.42;5.40;;;30.20;65.50;;;;;;5006360;28;20056;-80
2023/06/09 12:07:51;;;;;;;12.00;5.20;;;30.30;65.60;;;;;;5029660;28;20044;-81
2023/06/09 12:10:20;;;;;;;23.95;6.13;;;30.30;65.50;;;;;;5006577;28;20038;-80
2023/06/09 12:12:48;;;;;;;9.27;5.45;;;30.40;65.80;;;;;;4996250;28;20127;-80
2023/06/09 12:15:15;;;;;;;8.90;5.35;;;30.50;63.90;;;;;;5010858;28;20366;-80
2023/06/09 12:17:42;;;;;;;11.07;4.88;;;30.40;63.30;;;;;;5016487;28;20129;-80
2023/06/09 12:20:33;;;;;;;6.28;4.82;;;30.50;63.10;;;;;;5018192;28;20052;-80
2023/06/09 12:23:06;;;;;;;8.15;5.22;;;30.50;62.70;;;;;;5018406;28;20091;-80
2023/06/09 12:25:37;;;;;;;9.35;4.80;;;30.60;63.00;;;;;;4989467;28;20524;-80
2023/06/09 12:28:26;;;;;;;9.00;5.15;;;30.60;62.50;;;;;;5008480;28;20536;-80
2023/06/09 12:31:13;;;;;;;7.80;5.30;;;30.70;62.30;;;;;;4973006;28;20060;-81
2023/06/09 12:33:46;;;;;;;8.32;5.60;;;30.80;60.80;;;;;;5013707;28;20505;-80
2023/06/09 12:36:11;;;;;;;7.25;5.10;;;30.70;61.40;;;;;;4979525;28;20429;-80
2023/06/09 12:38:39;;;;;;;8.88;5.38;;;30.70;61.90;;;;;;4979584;28;20068;-75
2023/06/09 12:41:09;;;;;;;6.40;5.20;;;30.80;60.90;;;;;;5004125;28;20034;-78
2023/06/09 12:43:51;;;;;;;7.78;4.75;;;30.80;61.10;;;;;;5004913;28;20052;-80
2023/06/09 12:46:38;;;;;;;8.88;5.10;;;30.80;60.20;;;;;;5024855;28;20044;-81
2023/06/09 12:49:08;;;;;;;6.13;4.93;;;30.80;59.10;;;;;;5002682;28;20026;-80